createdAt,value
2018-07-05T00:02:23.681Z,5.27
2018-07-05T00:07:34.008Z,6.00
2018-07-05T00:12:44.317Z,6.13
2018-07-05T00:17:48.815Z,6.27
2018-07-05T00:22:59.195Z,5.67
2018-07-05T00:28:09.587Z,6.20
2018-07-05T00:33:20.033Z,6.23
2018-07-05T00:38:30.541Z,6.37
2018-07-05T00:43:41.017Z,6.07
2018-07-05T00:48:51.198Z,5.73
2018-07-05T00:54:01.768Z,6.07
2018-07-05T00:59:12.152Z,6.30
2018-07-05T01:04:22.587Z,6.37
2018-07-05T01:09:33.083Z,6.33
2018-07-05T01:14:43.547Z,6.00
2018-07-05T01:19:53.830Z,6.03
2018-07-05T01:25:04.306Z,6.37
2018-07-05T01:30:14.989Z,5.90
2018-07-05T01:35:25.359Z,5.93
2018-07-05T01:40:35.721Z,6.53
2018-07-05T01:45:46.011Z,6.30
2018-07-05T01:50:56.543Z,6.67
2018-07-05T01:56:06.816Z,6.60
2018-07-05T02:01:11.295Z,7.10
2018-07-05T02:06:21.728Z,6.57
2018-07-05T02:11:26.257Z,7.47
2018-07-05T02:16:36.660Z,7.47
2018-07-05T02:21:47.760Z,7.03
2018-07-05T02:26:58.175Z,7.67
2018-07-05T02:32:08.546Z,7.10
2018-07-05T02:37:24.670Z,7.10
2018-07-05T02:42:35.162Z,6.87
2018-07-05T02:47:39.609Z,7.10
2018-07-05T02:52:50.029Z,7.27
2018-07-05T02:58:00.327Z,7.63
2018-07-05T03:03:10.666Z,7.30
2018-07-05T03:08:21.059Z,7.77
2018-07-05T03:13:31.752Z,6.77
2018-07-05T03:18:42.184Z,6.53
2018-07-05T03:23:52.668Z,6.20
2018-07-05T03:29:03.000Z,6.07
2018-07-05T03:34:13.262Z,7.30
2018-07-05T03:39:23.724Z,7.00
2018-07-05T03:44:34.024Z,7.30
2018-07-05T03:49:44.424Z,7.40
2018-07-05T03:54:54.621Z,7.30
2018-07-05T04:00:04.970Z,8.20
2018-07-05T04:05:15.880Z,7.07
2018-07-05T04:10:20.738Z,6.77
2018-07-05T04:15:31.163Z,7.80
2018-07-05T04:20:41.550Z,7.47
2018-07-05T04:25:51.849Z,6.87
2018-07-05T04:31:02.179Z,6.90
2018-07-05T04:36:12.673Z,6.97
2018-07-05T04:41:22.988Z,7.30
2018-07-05T04:46:33.233Z,7.73
2018-07-05T04:51:43.588Z,8.10
2018-07-05T04:56:53.949Z,7.50
2018-07-05T05:02:04.338Z,7.60
2018-07-05T05:07:14.658Z,7.63
2018-07-05T05:12:25.044Z,7.10
2018-07-05T05:17:35.379Z,7.00
2018-07-05T05:22:45.724Z,6.53
2018-07-05T05:27:56.211Z,6.10
2018-07-05T05:33:06.502Z,6.93
2018-07-05T05:38:16.761Z,7.03
2018-07-05T05:43:27.033Z,6.50
2018-07-05T05:48:37.315Z,6.07
2018-07-05T05:53:47.652Z,7.40
2018-07-05T05:58:57.980Z,6.63
2018-07-05T06:04:08.362Z,6.90
2018-07-05T06:09:18.717Z,6.20
2018-07-05T06:14:29.042Z,7.80
2018-07-05T06:19:39.450Z,7.27
2018-07-05T06:24:49.775Z,6.73
2018-07-05T06:29:54.391Z,6.90
2018-07-05T06:35:04.846Z,6.37
2018-07-05T06:40:15.343Z,7.27
2018-07-05T06:45:25.868Z,5.77
2018-07-05T06:50:36.129Z,5.40
2018-07-05T06:55:46.594Z,5.57
2018-07-05T07:00:57.071Z,5.57
2018-07-05T07:06:07.386Z,5.80
2018-07-05T07:11:17.832Z,5.17
2018-07-05T07:16:28.152Z,5.30
2018-07-05T07:21:38.463Z,6.20
2018-07-05T07:26:48.801Z,6.40
2018-07-05T07:31:59.281Z,5.70
2018-07-05T07:37:03.671Z,7.13
2018-07-05T07:41:55.236Z,5.73
2018-07-05T07:46:47.590Z,6.83
2018-07-05T07:51:39.164Z,7.50
2018-07-05T07:56:30.756Z,7.03
2018-07-05T08:01:22.343Z,6.37
2018-07-05T08:06:13.921Z,7.30
2018-07-05T08:11:05.494Z,6.83
2018-07-05T08:15:57.068Z,6.10
2018-07-05T08:20:49.449Z,7.10
2018-07-05T08:25:41.173Z,5.65
2018-07-05T08:30:32.749Z,6.77
2018-07-05T08:35:24.324Z,8.60
2018-07-05T08:40:15.933Z,8.90
2018-07-05T08:45:07.505Z,10.17
2018-07-05T08:49:59.568Z,11.43
2018-07-05T08:54:51.156Z,9.60
2018-07-05T08:59:42.806Z,9.10
2018-07-05T09:04:34.586Z,11.27
2018-07-05T09:09:26.204Z,10.80
2018-07-05T09:14:17.832Z,12.10
2018-07-05T09:19:09.428Z,11.50
2018-07-05T09:24:01.022Z,11.93
2018-07-05T09:28:52.860Z,11.13
2018-07-05T09:33:44.527Z,12.37
2018-07-05T09:38:36.112Z,10.87
2018-07-05T09:43:27.932Z,13.90
2018-07-05T09:48:19.550Z,12.77
2018-07-05T09:53:11.131Z,13.73
2018-07-05T09:58:02.735Z,13.57
2018-07-05T10:02:54.344Z,16.93
2018-07-05T10:07:45.938Z,13.47
2018-07-05T10:12:37.513Z,15.37
2018-07-05T10:17:29.092Z,17.97
2018-07-05T10:22:20.843Z,15.37
2018-07-05T10:27:12.436Z,15.50
2018-07-05T10:32:22.864Z,14.60
2018-07-05T10:37:20.407Z,15.90
2018-07-05T10:42:30.703Z,15.30
2018-07-05T10:47:41.058Z,15.50
2018-07-05T10:52:51.593Z,15.80
2018-07-05T10:58:02.149Z,17.77
2018-07-05T11:03:06.634Z,15.67
2018-07-05T11:08:17.063Z,13.57
2018-07-05T11:13:21.596Z,11.30
2018-07-05T11:18:31.800Z,12.87
2018-07-05T11:23:42.104Z,9.47
2018-07-05T11:28:52.418Z,12.67
2018-07-05T11:34:02.756Z,10.20
2018-07-05T11:39:13.234Z,12.83
2018-07-05T11:44:23.455Z,10.97
2018-07-05T11:49:27.811Z,8.40
2018-07-05T11:54:38.158Z,6.63
2018-07-05T11:59:48.612Z,6.93
2018-07-05T12:04:59.080Z,6.00
2018-07-05T12:10:09.380Z,6.07
2018-07-05T12:15:19.650Z,5.00
2018-07-05T12:20:29.991Z,5.90
2018-07-05T12:25:40.238Z,5.10
2018-07-05T12:30:50.665Z,6.47
2018-07-05T12:36:00.987Z,5.57
2018-07-05T12:41:11.291Z,7.07
2018-07-05T12:46:21.600Z,6.63
2018-07-05T12:51:31.854Z,6.90
2018-07-05T12:56:42.120Z,7.63
2018-07-05T13:01:52.446Z,8.23
2018-07-05T13:06:56.995Z,5.70
2018-07-05T13:12:07.357Z,5.43
2018-07-05T13:17:17.612Z,6.33
2018-07-05T13:22:27.883Z,5.43
2018-07-05T13:27:38.595Z,6.00
2018-07-05T13:32:49.132Z,5.90
2018-07-05T13:37:59.510Z,5.83
2018-07-05T13:43:09.920Z,5.33
2018-07-05T13:48:14.442Z,5.80
2018-07-05T13:53:24.721Z,5.70
2018-07-05T13:58:29.303Z,7.50
2018-07-05T14:03:39.742Z,7.33
2018-07-05T14:08:50.004Z,8.70
2018-07-05T14:14:00.326Z,6.40
2018-07-05T14:19:10.771Z,7.00
2018-07-05T14:24:15.385Z,6.47
2018-07-05T14:29:25.669Z,5.43
2018-07-05T14:34:35.812Z,5.60
2018-07-05T14:39:46.052Z,5.83
2018-07-05T14:44:56.645Z,5.13
2018-07-05T14:50:06.940Z,5.97
2018-07-05T14:55:17.275Z,6.67
2018-07-05T15:00:27.439Z,5.00
2018-07-05T15:05:37.892Z,4.37
2018-07-05T15:10:48.330Z,5.23
2018-07-05T15:15:58.817Z,4.00
2018-07-05T15:21:09.128Z,4.40
2018-07-05T15:26:19.430Z,4.50
2018-07-05T15:31:29.782Z,4.70
2018-07-05T15:36:34.222Z,4.77
2018-07-05T15:41:38.729Z,3.37
2018-07-05T15:46:49.672Z,3.90
2018-07-05T15:52:00.137Z,2.73
2018-07-05T15:57:10.333Z,3.23
2018-07-05T16:02:20.766Z,2.90
2018-07-05T16:07:31.130Z,3.00
2018-07-05T16:12:41.498Z,2.57
2018-07-05T16:17:51.717Z,2.70
2018-07-05T16:23:01.943Z,2.17
2018-07-05T16:28:12.292Z,2.17
2018-07-05T16:33:22.696Z,2.10
2018-07-05T16:38:33.086Z,2.70
2018-07-05T16:43:43.533Z,3.10
2018-07-05T16:48:53.884Z,3.03
2018-07-05T16:54:04.265Z,3.50
2018-07-05T16:59:14.476Z,3.13
2018-07-05T17:04:24.796Z,3.67
2018-07-05T17:09:35.310Z,2.77
2018-07-05T17:14:45.666Z,2.90
2018-07-05T17:19:56.637Z,2.50
2018-07-05T17:25:06.942Z,2.60
2018-07-05T17:30:17.336Z,2.80
2018-07-05T17:35:27.607Z,2.37
2018-07-05T17:40:38.058Z,3.03
2018-07-05T17:45:48.442Z,2.93
2018-07-05T17:52:02.342Z,3.10
2018-07-05T17:57:12.616Z,3.40
2018-07-05T18:02:23.010Z,3.20
2018-07-05T18:07:27.482Z,2.87
2018-07-05T18:12:37.917Z,3.30
2018-07-05T18:17:48.265Z,2.90
2018-07-05T18:22:58.501Z,2.97
2018-07-05T18:28:08.942Z,2.57
2018-07-05T18:33:19.262Z,2.63
2018-07-05T18:38:29.573Z,2.90
2018-07-05T18:43:39.912Z,2.63
2018-07-05T18:48:50.282Z,2.47
2018-07-05T18:54:00.743Z,2.70
2018-07-05T18:59:11.099Z,2.60
2018-07-05T19:04:21.579Z,2.87
2018-07-05T19:09:31.923Z,2.60
2018-07-05T19:14:42.193Z,2.60
2018-07-05T19:19:54.664Z,2.40
2018-07-05T19:25:05.173Z,2.60
2018-07-05T19:30:15.530Z,2.70
2018-07-05T19:35:26.047Z,2.60
2018-07-05T19:40:36.534Z,2.33
2018-07-05T19:45:46.842Z,2.60
2018-07-05T19:50:57.155Z,2.73
2018-07-05T19:56:07.321Z,2.90
2018-07-05T20:01:17.605Z,3.30
2018-07-05T20:06:28.672Z,4.40
2018-07-05T20:11:43.616Z,5.73
2018-07-05T20:16:53.888Z,5.80
2018-07-05T20:22:08.478Z,5.87
2018-07-05T20:27:18.784Z,4.57
2018-07-05T20:32:29.273Z,5.20
2018-07-05T20:37:41.307Z,4.17
2018-07-05T20:42:51.739Z,3.57
2018-07-05T20:47:56.344Z,3.80
2018-07-05T20:53:06.908Z,3.60
2018-07-05T20:58:17.172Z,3.97
2018-07-05T21:03:27.490Z,3.17
2018-07-05T21:08:38.065Z,3.30
2018-07-05T21:13:48.532Z,2.40
2018-07-05T21:18:59.004Z,2.70
2018-07-05T21:24:09.390Z,2.43
2018-07-05T21:29:19.765Z,3.50
2018-07-05T21:34:30.130Z,2.80
2018-07-05T21:39:40.525Z,3.10
2018-07-05T21:44:50.871Z,2.23
2018-07-05T21:50:01.291Z,2.30
2018-07-05T21:55:11.751Z,2.10
2018-07-05T22:00:22.104Z,1.53
2018-07-05T22:05:32.642Z,2.17
2018-07-05T22:10:37.161Z,1.93
2018-07-05T22:15:47.451Z,3.87
2018-07-05T22:20:57.730Z,2.10
2018-07-05T22:26:13.773Z,1.90
2018-07-05T22:31:29.782Z,2.10
2018-07-05T22:36:40.119Z,1.60
2018-07-05T22:41:44.601Z,1.60
2018-07-05T22:46:54.795Z,1.60
2018-07-05T22:52:05.010Z,1.70
2018-07-05T22:57:15.380Z,1.53
2018-07-05T23:02:20.472Z,1.50
2018-07-05T23:07:30.903Z,1.70
2018-07-05T23:12:35.443Z,2.60
2018-07-05T23:17:39.959Z,1.77
2018-07-05T23:22:50.221Z,2.17
2018-07-05T23:28:00.376Z,1.90
2018-07-05T23:33:10.580Z,1.90
2018-07-05T23:38:20.822Z,1.53
2018-07-05T23:43:31.136Z,1.80
2018-07-05T23:48:41.487Z,2.00
2018-07-05T23:53:51.839Z,1.80
2018-07-05T23:59:02.128Z,1.80
